Time;durP1;ratioP1;P1;durP2;ratioP2;P2;SDS_P1;SDS_P2;PMS_P1;PMS_P2;Temp;Humidity;BMP_temperature;BMP_pressure;BME280_temperature;BME280_humidity;BME280_pressure;Samples;Min_cycle;Max_cycle;Signal;HPM_P1;HPM_P2
2021/12/26 00:00:25;;;;;;;0.20;0.20;;;;;;;;;;1718631;28;20546;-69
2021/12/26 00:01:18;;;;;;;0.10;0.10;;;;;;;;;;1719614;28;20217;-69
2021/12/26 00:02:10;;;;;;;0.15;0.15;;;;;;;;;;1719173;28;20205;-69
2021/12/26 00:03:01;;;;;;;0.10;0.10;;;;;;;;;;1717635;28;20228;-69
2021/12/26 00:03:54;;;;;;;0.15;0.15;;;;;;;;;;1718502;28;20213;-69
2021/12/26 00:04:45;;;;;;;0.10;0.10;;;;;;;;;;1719486;28;20209;-69
2021/12/26 00:05:37;;;;;;;0.20;0.20;;;;;;;;;;1718901;28;20209;-69
2021/12/26 00:06:28;;;;;;;0.03;0.03;;;;;;;;;;1719425;28;20582;-69
2021/12/26 00:07:20;;;;;;;0.10;0.10;;;;;;;;;;1719407;28;20196;-69
2021/12/26 00:08:12;;;;;;;0.00;0.00;;;;;;;;;;1719920;28;20638;-69
2021/12/26 00:09:04;;;;;;;0.10;0.10;;;;;;;;;;1718472;28;20201;-69
2021/12/26 00:09:55;;;;;;;0.00;0.00;;;;;;;;;;1718959;28;20232;-69
2021/12/26 00:10:48;;;;;;;0.00;0.00;;;;;;;;;;1718890;28;20308;-69
2021/12/26 00:11:41;;;;;;;0.10;0.10;;;;;;;;;;1719778;28;20236;-69
2021/12/26 00:12:33;;;;;;;0.20;0.20;;;;;;;;;;1719501;28;20728;-69
2021/12/26 00:13:24;;;;;;;0.10;0.10;;;;;;;;;;1719502;28;20225;-69
2021/12/26 00:14:16;;;;;;;0.20;0.20;;;;;;;;;;1718892;28;20288;-69
2021/12/26 00:15:08;;;;;;;0.08;0.08;;;;;;;;;;1719786;28;20527;-69
2021/12/26 00:16:02;;;;;;;0.10;0.10;;;;;;;;;;1718274;28;20224;-68
2021/12/26 00:16:53;;;;;;;0.00;0.00;;;;;;;;;;1719204;28;20776;-68
2021/12/26 00:17:45;;;;;;;0.10;0.10;;;;;;;;;;1719663;28;20208;-68
2021/12/26 00:18:37;;;;;;;0.10;0.10;;;;;;;;;;1718935;28;20222;-68
2021/12/26 00:19:29;;;;;;;0.00;0.00;;;;;;;;;;1719387;28;20201;-68
2021/12/26 00:20:20;;;;;;;0.08;0.08;;;;;;;;;;1719390;28;20216;-68
2021/12/26 00:21:13;;;;;;;0.00;0.00;;;;;;;;;;1715434;28;20319;-70
2021/12/26 00:22:04;;;;;;;0.13;0.13;;;;;;;;;;1718831;28;20205;-69
2021/12/26 00:22:56;;;;;;;0.10;0.10;;;;;;;;;;1719990;28;20204;-68
2021/12/26 00:23:48;;;;;;;0.10;0.10;;;;;;;;;;1718993;28;20270;-69
2021/12/26 00:24:40;;;;;;;0.08;0.08;;;;;;;;;;1719758;28;20205;-69
2021/12/26 00:25:32;;;;;;;0.10;0.10;;;;;;;;;;1718844;28;20552;-69
2021/12/26 00:26:24;;;;;;;0.10;0.10;;;;;;;;;;1719798;28;20543;-69
2021/12/26 00:27:18;;;;;;;0.20;0.20;;;;;;;;;;1718648;28;20216;-69
2021/12/26 00:28:10;;;;;;;0.10;0.10;;;;;;;;;;1719609;28;20205;-69
2021/12/26 00:29:02;;;;;;;0.10;0.10;;;;;;;;;;1718916;28;20212;-69
2021/12/26 00:29:54;;;;;;;0.00;0.00;;;;;;;;;;1719225;28;20516;-69
2021/12/26 00:30:45;;;;;;;0.00;0.00;;;;;;;;;;1719110;28;20252;-69
2021/12/26 00:31:38;;;;;;;0.10;0.10;;;;;;;;;;1719482;28;20200;-68
2021/12/26 00:32:29;;;;;;;0.20;0.20;;;;;;;;;;1719132;28;20204;-68
2021/12/26 00:33:21;;;;;;;0.03;0.03;;;;;;;;;;1718939;28;20205;-68
2021/12/26 00:34:12;;;;;;;0.00;0.00;;;;;;;;;;1719184;28;20647;-69
2021/12/26 00:35:07;;;;;;;0.10;0.10;;;;;;;;;;1719454;28;20204;-68
2021/12/26 00:35:59;;;;;;;0.00;0.00;;;;;;;;;;1718387;28;20299;-68
2021/12/26 00:36:51;;;;;;;0.10;0.10;;;;;;;;;;1719557;28;20213;-68
2021/12/26 00:37:43;;;;;;;0.10;0.10;;;;;;;;;;1719535;28;20271;-68
2021/12/26 00:38:35;;;;;;;0.10;0.10;;;;;;;;;;1717386;28;20547;-68
2021/12/26 00:39:26;;;;;;;0.10;0.10;;;;;;;;;;1719471;28;20211;-68
2021/12/26 00:40:20;;;;;;;0.10;0.10;;;;;;;;;;1719172;28;20605;-68
2021/12/26 00:41:11;;;;;;;0.00;0.00;;;;;;;;;;1719114;28;20240;-68
2021/12/26 00:42:04;;;;;;;0.00;0.00;;;;;;;;;;1718762;28;20232;-69
2021/12/26 00:42:56;;;;;;;0.00;0.00;;;;;;;;;;1718163;28;20238;-69
2021/12/26 00:43:49;;;;;;;0.10;0.10;;;;;;;;;;1718816;28;20784;-68
2021/12/26 00:44:40;;;;;;;0.00;0.00;;;;;;;;;;1718971;28;20205;-69
2021/12/26 00:45:32;;;;;;;0.10;0.10;;;;;;;;;;1717933;28;20258;-69
2021/12/26 00:46:24;;;;;;;0.10;0.10;;;;;;;;;;1719171;28;20209;-69
2021/12/26 00:47:16;;;;;;;0.00;0.00;;;;;;;;;;1719421;28;20259;-69
2021/12/26 00:48:07;;;;;;;0.00;0.00;;;;;;;;;;1718723;28;20201;-69
2021/12/26 00:48:59;;;;;;;0.10;0.10;;;;;;;;;;1718644;28;20208;-69
2021/12/26 00:49:50;;;;;;;0.10;0.10;;;;;;;;;;1719440;28;20212;-69
2021/12/26 00:50:43;;;;;;;0.00;0.00;;;;;;;;;;1717995;28;20239;-68
2021/12/26 00:51:34;;;;;;;0.10;0.10;;;;;;;;;;1719277;28;20658;-68
2021/12/26 00:52:27;;;;;;;0.00;0.00;;;;;;;;;;1719184;28;20201;-69
2021/12/26 00:53:18;;;;;;;0.10;0.10;;;;;;;;;;1719520;28;20508;-68
2021/12/26 00:54:10;;;;;;;0.00;0.00;;;;;;;;;;1719310;28;20572;-68
2021/12/26 00:55:01;;;;;;;0.10;0.10;;;;;;;;;;1719329;28;20616;-68
2021/12/26 00:55:53;;;;;;;0.00;0.00;;;;;;;;;;1718645;28;20242;-69
2021/12/26 00:56:45;;;;;;;0.00;0.00;;;;;;;;;;1718407;28;20217;-69
2021/12/26 00:57:37;;;;;;;0.00;0.00;;;;;;;;;;1719313;28;20243;-69
2021/12/26 00:58:30;;;;;;;0.00;0.00;;;;;;;;;;1719102;28;20203;-69
2021/12/26 00:59:22;;;;;;;0.10;0.10;;;;;;;;;;1719254;28;20548;-69
2021/12/26 01:00:15;;;;;;;0.00;0.00;;;;;;;;;;1719370;28;20204;-69
2021/12/26 01:01:08;;;;;;;0.00;0.00;;;;;;;;;;1716280;28;20222;-69
2021/12/26 01:01:59;;;;;;;0.10;0.10;;;;;;;;;;1718913;28;20208;-70
2021/12/26 01:02:51;;;;;;;0.10;0.10;;;;;;;;;;1717527;28;20304;-70
2021/12/26 01:03:43;;;;;;;0.20;0.20;;;;;;;;;;1718938;28;20224;-70
2021/12/26 01:04:35;;;;;;;0.05;0.05;;;;;;;;;;1719712;28;20292;-69
2021/12/26 01:05:26;;;;;;;0.00;0.00;;;;;;;;;;1718321;28;20215;-70
2021/12/26 01:06:19;;;;;;;0.10;0.10;;;;;;;;;;1719592;28;20205;-69
2021/12/26 01:07:19;;;;;;;0.10;0.10;;;;;;;;;;1718664;28;20274;-70
2021/12/26 01:08:14;;;;;;;0.20;0.20;;;;;;;;;;1718976;28;20285;-70
2021/12/26 01:09:08;;;;;;;0.00;0.00;;;;;;;;;;1718263;28;20575;-69
2021/12/26 01:10:00;;;;;;;0.00;0.00;;;;;;;;;;1719394;28;20272;-69
2021/12/26 01:10:54;;;;;;;0.00;0.00;;;;;;;;;;1718837;28;20236;-69
2021/12/26 01:11:50;;;;;;;0.10;0.10;;;;;;;;;;1719341;28;20224;-69
2021/12/26 01:12:41;;;;;;;0.00;0.00;;;;;;;;;;1719115;28;20209;-69
2021/12/26 01:13:37;;;;;;;0.00;0.00;;;;;;;;;;1718653;28;20271;-69
2021/12/26 01:14:31;;;;;;;0.03;0.03;;;;;;;;;;1718808;28;20201;-69
2021/12/26 01:15:24;;;;;;;0.10;0.10;;;;;;;;;;1718210;28;20213;-68
2021/12/26 01:16:16;;;;;;;0.00;0.00;;;;;;;;;;1719565;28;20208;-68
2021/12/26 01:17:13;;;;;;;0.00;0.00;;;;;;;;;;1718880;28;20511;-69
2021/12/26 01:18:05;;;;;;;0.10;0.10;;;;;;;;;;1719302;28;20197;-69
2021/12/26 01:19:03;;;;;;;0.08;0.08;;;;;;;;;;1718588;28;20266;-69
2021/12/26 01:19:55;;;;;;;0.10;0.10;;;;;;;;;;1719210;28;20212;-69
2021/12/26 01:20:52;;;;;;;0.10;0.10;;;;;;;;;;1718206;28;20315;-69
2021/12/26 01:21:44;;;;;;;0.10;0.10;;;;;;;;;;1718897;28;20597;-69
2021/12/26 01:22:37;;;;;;;0.00;0.00;;;;;;;;;;1718926;28;20204;-68
2021/12/26 01:23:29;;;;;;;0.08;0.08;;;;;;;;;;1719206;28;20205;-68
2021/12/26 01:24:21;;;;;;;0.00;0.00;;;;;;;;;;1718731;28;20581;-68
2021/12/26 01:25:12;;;;;;;0.10;0.10;;;;;;;;;;1719528;28;20216;-68
2021/12/26 01:26:05;;;;;;;0.20;0.20;;;;;;;;;;1718169;28;20322;-69
2021/12/26 01:26:56;;;;;;;0.00;0.00;;;;;;;;;;1718439;28;20204;-69
2021/12/26 01:27:48;;;;;;;0.00;0.00;;;;;;;;;;1719305;28;20216;-69
2021/12/26 01:28:41;;;;;;;0.10;0.10;;;;;;;;;;1718704;28;20262;-69
2021/12/26 01:29:34;;;;;;;0.10;0.10;;;;;;;;;;1719392;28;20209;-69
2021/12/26 01:30:25;;;;;;;0.00;0.00;;;;;;;;;;1718204;28;20205;-69
2021/12/26 01:31:19;;;;;;;0.10;0.10;;;;;;;;;;1719563;28;20296;-69
2021/12/26 01:32:10;;;;;;;0.10;0.10;;;;;;;;;;1718118;28;20554;-69
2021/12/26 01:33:02;;;;;;;0.00;0.00;;;;;;;;;;1719142;28;20232;-69
2021/12/26 01:33:56;;;;;;;0.00;0.00;;;;;;;;;;1718980;28;20210;-69
2021/12/26 01:34:48;;;;;;;0.10;0.10;;;;;;;;;;1718952;28;20593;-69
2021/12/26 01:35:40;;;;;;;0.05;0.05;;;;;;;;;;1718580;28;20327;-68
2021/12/26 01:36:33;;;;;;;0.10;0.10;;;;;;;;;;1719074;28;20201;-68
2021/12/26 01:37:25;;;;;;;0.00;0.00;;;;;;;;;;1719022;28;20654;-68
2021/12/26 01:38:17;;;;;;;0.10;0.10;;;;;;;;;;1718396;28;20224;-68
2021/12/26 01:39:09;;;;;;;0.10;0.10;;;;;;;;;;1717376;28;20200;-68
2021/12/26 01:40:01;;;;;;;0.00;0.00;;;;;;;;;;1719432;28;20302;-68
2021/12/26 01:40:56;;;;;;;0.10;0.10;;;;;;;;;;1718347;28;20248;-68
2021/12/26 01:41:49;;;;;;;0.00;0.00;;;;;;;;;;1719038;28;20205;-68
2021/12/26 01:42:40;;;;;;;0.00;0.00;;;;;;;;;;1718849;28;20228;-68
2021/12/26 01:43:32;;;;;;;0.05;0.05;;;;;;;;;;1716534;28;20203;-68
2021/12/26 01:44:25;;;;;;;0.10;0.10;;;;;;;;;;1718172;28;21040;-68
2021/12/26 01:45:17;;;;;;;0.20;0.20;;;;;;;;;;1718772;28;20209;-68
2021/12/26 01:46:09;;;;;;;0.00;0.00;;;;;;;;;;1718261;28;20598;-69
2021/12/26 01:47:01;;;;;;;0.10;0.10;;;;;;;;;;1718699;28;20201;-69
2021/12/26 01:47:56;;;;;;;0.30;0.30;;;;;;;;;;1716006;28;20209;-69
2021/12/26 01:48:48;;;;;;;0.10;0.10;;;;;;;;;;1718271;28;20614;-69
2021/12/26 01:49:40;;;;;;;0.20;0.20;;;;;;;;;;1719528;28;20537;-69
2021/12/26 01:50:32;;;;;;;0.10;0.10;;;;;;;;;;1717310;28;20209;-69
2021/12/26 01:51:23;;;;;;;0.10;0.10;;;;;;;;;;1718886;28;20539;-69
2021/12/26 01:52:16;;;;;;;0.10;0.10;;;;;;;;;;1718821;28;20654;-69
2021/12/26 01:53:07;;;;;;;0.00;0.00;;;;;;;;;;1718999;28;20259;-68
2021/12/26 01:54:04;;;;;;;0.10;0.10;;;;;;;;;;1718838;28;20627;-69
2021/12/26 01:55:01;;;;;;;0.00;0.00;;;;;;;;;;1718899;28;20193;-68
2021/12/26 01:55:55;;;;;;;0.03;0.03;;;;;;;;;;1718173;28;20224;-69
2021/12/26 01:56:46;;;;;;;0.00;0.00;;;;;;;;;;1718266;28;20210;-69
2021/12/26 01:57:38;;;;;;;0.10;0.10;;;;;;;;;;1718643;28;20210;-69
2021/12/26 01:58:31;;;;;;;0.00;0.00;;;;;;;;;;1718615;28;20201;-69
2021/12/26 01:59:23;;;;;;;0.10;0.10;;;;;;;;;;1718623;28;20208;-69
2021/12/26 02:00:16;;;;;;;0.00;0.00;;;;;;;;;;1719169;28;20224;-69
2021/12/26 02:01:09;;;;;;;0.00;0.00;;;;;;;;;;1717219;28;20236;-68
2021/12/26 02:02:01;;;;;;;0.10;0.10;;;;;;;;;;1718347;28;20209;-70
2021/12/26 02:02:53;;;;;;;0.05;0.05;;;;;;;;;;1718036;28;20196;-68
2021/12/26 02:03:44;;;;;;;0.03;0.03;;;;;;;;;;1718638;28;20231;-68
2021/12/26 02:04:38;;;;;;;0.32;0.32;;;;;;;;;;1719336;28;20201;-68
2021/12/26 02:05:29;;;;;;;0.00;0.00;;;;;;;;;;1718082;28;20203;-68
2021/12/26 02:06:21;;;;;;;0.10;0.10;;;;;;;;;;1719203;28;20236;-68
2021/12/26 02:07:13;;;;;;;0.00;0.00;;;;;;;;;;1718402;28;20638;-68
2021/12/26 02:08:06;;;;;;;0.17;0.17;;;;;;;;;;1718570;28;20208;-68
2021/12/26 02:08:57;;;;;;;0.00;0.00;;;;;;;;;;1717872;28;20205;-68
2021/12/26 02:09:49;;;;;;;0.03;0.03;;;;;;;;;;1718976;28;20200;-68
2021/12/26 02:10:40;;;;;;;0.00;0.00;;;;;;;;;;1718315;28;20259;-69
2021/12/26 02:11:32;;;;;;;0.00;0.00;;;;;;;;;;1718807;28;20209;-69
2021/12/26 02:12:24;;;;;;;0.10;0.10;;;;;;;;;;1716167;28;20209;-69
2021/12/26 02:13:16;;;;;;;0.10;0.10;;;;;;;;;;1718816;28;20608;-69
2021/12/26 02:14:07;;;;;;;0.10;0.10;;;;;;;;;;1718382;28;20204;-69
2021/12/26 02:14:59;;;;;;;0.00;0.00;;;;;;;;;;1714268;28;20300;-69
2021/12/26 02:15:52;;;;;;;0.00;0.00;;;;;;;;;;1718361;28;20224;-69
2021/12/26 02:16:45;;;;;;;0.00;0.00;;;;;;;;;;1718974;28;20638;-69
2021/12/26 02:17:36;;;;;;;0.00;0.00;;;;;;;;;;1718694;28;20693;-69
2021/12/26 02:18:28;;;;;;;0.10;0.10;;;;;;;;;;1718351;28;20201;-69
2021/12/26 02:19:19;;;;;;;0.20;0.20;;;;;;;;;;1718586;28;20440;-69
2021/12/26 02:20:18;;;;;;;0.10;0.10;;;;;;;;;;1718707;28;20201;-69
2021/12/26 02:21:20;;;;;;;0.05;0.05;;;;;;;;;;1718761;28;20716;-69
2021/12/26 02:22:18;;;;;;;0.10;0.10;;;;;;;;;;1718540;28;20635;-69
2021/12/26 02:23:14;;;;;;;0.05;0.05;;;;;;;;;;1719214;28;20238;-69
2021/12/26 02:24:14;;;;;;;0.03;0.03;;;;;;;;;;1718417;28;20198;-69
2021/12/26 02:25:23;;;;;;;0.00;0.00;;;;;;;;;;1716088;28;20207;-69
2021/12/26 02:27:32;;;;;;;0.10;0.10;;;;;;;;;;1725204;28;20200;-69
2021/12/26 02:28:24;;;;;;;0.00;0.00;;;;;;;;;;1721976;28;20205;-69
2021/12/26 02:29:16;;;;;;;0.00;0.00;;;;;;;;;;1724821;28;20262;-69
2021/12/26 02:30:09;;;;;;;0.20;0.20;;;;;;;;;;1726089;28;20208;-69
2021/12/26 02:31:01;;;;;;;0.10;0.10;;;;;;;;;;1724840;28;20239;-69
2021/12/26 02:31:52;;;;;;;0.10;0.10;;;;;;;;;;1725407;28;20210;-69
2021/12/26 02:32:46;;;;;;;0.00;0.00;;;;;;;;;;1724790;28;20648;-70
2021/12/26 02:33:37;;;;;;;0.00;0.00;;;;;;;;;;1725587;28;20713;-69
2021/12/26 02:34:29;;;;;;;0.00;0.00;;;;;;;;;;1725821;28;20203;-70
2021/12/26 02:35:23;;;;;;;0.00;0.00;;;;;;;;;;1725372;28;20647;-70
2021/12/26 02:36:15;;;;;;;0.00;0.00;;;;;;;;;;1722536;28;20211;-69
2021/12/26 02:37:06;;;;;;;0.00;0.00;;;;;;;;;;1725055;28;20705;-69
2021/12/26 02:37:58;;;;;;;0.00;0.00;;;;;;;;;;1725621;28;20210;-68
2021/12/26 02:38:50;;;;;;;0.00;0.00;;;;;;;;;;1722974;28;20208;-69
2021/12/26 02:39:42;;;;;;;0.10;0.10;;;;;;;;;;1725715;28;20209;-68
2021/12/26 02:40:33;;;;;;;0.00;0.00;;;;;;;;;;1724809;28;20262;-69
2021/12/26 02:41:26;;;;;;;0.00;0.00;;;;;;;;;;1725902;28;20206;-69
2021/12/26 02:42:18;;;;;;;0.00;0.00;;;;;;;;;;1725402;28;20207;-69
2021/12/26 02:43:12;;;;;;;0.00;0.00;;;;;;;;;;1725711;28;20735;-69
2021/12/26 02:44:04;;;;;;;0.13;0.13;;;;;;;;;;1724819;28;20290;-69
2021/12/26 02:44:56;;;;;;;0.10;0.10;;;;;;;;;;1725001;28;20204;-69
2021/12/26 02:45:48;;;;;;;0.10;0.10;;;;;;;;;;1724949;28;20254;-68
2021/12/26 02:46:40;;;;;;;0.00;0.00;;;;;;;;;;1721558;28;20263;-68
2021/12/26 02:47:33;;;;;;;0.05;0.05;;;;;;;;;;1725249;28;20204;-69
2021/12/26 02:48:25;;;;;;;0.10;0.10;;;;;;;;;;1725707;28;20534;-68
2021/12/26 02:49:21;;;;;;;0.30;0.30;;;;;;;;;;1724890;28;21049;-68
2021/12/26 02:50:15;;;;;;;0.00;0.00;;;;;;;;;;1725302;28;20192;-69
2021/12/26 02:51:08;;;;;;;0.30;0.30;;;;;;;;;;1723796;28;20278;-69
2021/12/26 02:52:00;;;;;;;0.10;0.10;;;;;;;;;;1725359;28;20211;-69
2021/12/26 02:52:52;;;;;;;0.20;0.20;;;;;;;;;;1725814;28;20574;-69
2021/12/26 02:53:44;;;;;;;0.10;0.10;;;;;;;;;;1724949;28;20204;-69
2021/12/26 02:54:36;;;;;;;0.00;0.00;;;;;;;;;;1725919;28;20216;-69
2021/12/26 02:55:28;;;;;;;0.10;0.10;;;;;;;;;;1724537;28;20191;-69
2021/12/26 02:56:20;;;;;;;0.00;0.00;;;;;;;;;;1725200;28;20231;-69
2021/12/26 02:57:11;;;;;;;0.00;0.00;;;;;;;;;;1725257;28;20212;-69
2021/12/26 02:58:07;;;;;;;0.10;0.10;;;;;;;;;;1725612;28;20271;-69
2021/12/26 02:58:58;;;;;;;0.10;0.10;;;;;;;;;;1725000;28;20239;-69
2021/12/26 02:59:50;;;;;;;0.20;0.20;;;;;;;;;;1725671;28;20227;-68
2021/12/26 03:00:42;;;;;;;0.00;0.00;;;;;;;;;;1724495;28;20585;-68
2021/12/26 03:01:35;;;;;;;0.00;0.00;;;;;;;;;;1724661;28;20196;-69
2021/12/26 03:02:26;;;;;;;0.00;0.00;;;;;;;;;;1724380;28;20202;-69
2021/12/26 03:03:18;;;;;;;0.08;0.08;;;;;;;;;;1725486;28;20593;-68
2021/12/26 03:04:10;;;;;;;0.10;0.10;;;;;;;;;;1724997;28;20203;-69
2021/12/26 03:05:09;;;;;;;0.10;0.10;;;;;;;;;;1725635;28;20208;-69
2021/12/26 03:06:02;;;;;;;0.00;0.00;;;;;;;;;;1724277;28;20259;-69
2021/12/26 03:07:02;;;;;;;0.08;0.08;;;;;;;;;;1725117;28;20295;-69
2021/12/26 03:07:53;;;;;;;0.00;0.00;;;;;;;;;;1721706;28;20197;-69
2021/12/26 03:08:46;;;;;;;0.00;0.00;;;;;;;;;;1724417;28;20763;-68
2021/12/26 03:09:45;;;;;;;0.00;0.00;;;;;;;;;;1725760;28;20298;-69
2021/12/26 03:10:39;;;;;;;0.00;0.00;;;;;;;;;;1724922;28;20510;-69
2021/12/26 03:11:30;;;;;;;0.10;0.10;;;;;;;;;;1724864;28;20320;-69
2021/12/26 03:12:22;;;;;;;0.00;0.00;;;;;;;;;;1724963;28;20283;-69
2021/12/26 03:13:14;;;;;;;0.10;0.10;;;;;;;;;;1725737;28;20727;-69
2021/12/26 03:14:07;;;;;;;0.00;0.00;;;;;;;;;;1724671;28;20206;-68
2021/12/26 03:14:58;;;;;;;0.10;0.10;;;;;;;;;;1725487;28;20609;-69
2021/12/26 03:15:52;;;;;;;0.00;0.00;;;;;;;;;;1725007;28;20223;-68
2021/12/26 03:16:47;;;;;;;0.00;0.00;;;;;;;;;;1725396;28;20216;-68
2021/12/26 03:17:40;;;;;;;0.00;0.00;;;;;;;;;;1725268;28;20260;-69
2021/12/26 03:18:31;;;;;;;0.00;0.00;;;;;;;;;;1725045;28;20200;-68
2021/12/26 03:19:23;;;;;;;0.00;0.00;;;;;;;;;;1725496;28;20204;-69
2021/12/26 03:20:15;;;;;;;0.10;0.10;;;;;;;;;;1724734;28;20255;-68
2021/12/26 03:21:07;;;;;;;0.00;0.00;;;;;;;;;;1724853;28;20262;-69
2021/12/26 03:22:00;;;;;;;0.00;0.00;;;;;;;;;;1725270;28;20208;-69
2021/12/26 03:22:52;;;;;;;0.10;0.10;;;;;;;;;;1725339;28;20299;-69
2021/12/26 03:23:43;;;;;;;0.10;0.10;;;;;;;;;;1725164;28;20213;-69
2021/12/26 03:24:38;;;;;;;0.00;0.00;;;;;;;;;;1726204;28;20640;-69
2021/12/26 03:25:29;;;;;;;0.10;0.10;;;;;;;;;;1726067;28;20201;-70
2021/12/26 03:26:21;;;;;;;0.00;0.00;;;;;;;;;;1726305;28;20515;-69
2021/12/26 03:27:12;;;;;;;0.10;0.10;;;;;;;;;;1725862;28;20204;-69
2021/12/26 03:28:06;;;;;;;0.10;0.10;;;;;;;;;;1726771;28;20211;-69
2021/12/26 03:28:57;;;;;;;0.00;0.00;;;;;;;;;;1725709;28;20204;-69
2021/12/26 03:29:49;;;;;;;0.10;0.10;;;;;;;;;;1726926;28;20208;-69
2021/12/26 03:30:41;;;;;;;0.00;0.00;;;;;;;;;;1726134;28;20260;-70
2021/12/26 03:31:33;;;;;;;0.10;0.10;;;;;;;;;;1726862;28;20236;-69
2021/12/26 03:32:24;;;;;;;0.08;0.08;;;;;;;;;;1725706;28;20560;-69
2021/12/26 03:33:16;;;;;;;0.10;0.10;;;;;;;;;;1726606;28;20567;-69
2021/12/26 03:34:08;;;;;;;0.10;0.10;;;;;;;;;;1726540;28;20736;-70
2021/12/26 03:35:00;;;;;;;0.00;0.00;;;;;;;;;;1726746;28;20299;-69
2021/12/26 03:35:51;;;;;;;0.10;0.10;;;;;;;;;;1726124;28;20569;-68
2021/12/26 03:36:44;;;;;;;0.00;0.00;;;;;;;;;;1726836;28;20294;-70
2021/12/26 03:37:36;;;;;;;0.00;0.00;;;;;;;;;;1726105;28;20234;-69
2021/12/26 03:38:29;;;;;;;0.05;0.05;;;;;;;;;;1724886;28;20200;-69
2021/12/26 03:39:20;;;;;;;0.00;0.00;;;;;;;;;;1725878;28;20207;-68
2021/12/26 03:40:13;;;;;;;0.00;0.00;;;;;;;;;;1727255;28;20232;-68
2021/12/26 03:41:04;;;;;;;0.00;0.00;;;;;;;;;;1725653;28;20228;-68
2021/12/26 03:41:56;;;;;;;0.10;0.10;;;;;;;;;;1726367;28;20597;-69
2021/12/26 03:42:51;;;;;;;0.10;0.10;;;;;;;;;;1726284;28;20343;-69
2021/12/26 03:43:43;;;;;;;0.20;0.20;;;;;;;;;;1725810;28;20235;-69
2021/12/26 03:44:34;;;;;;;0.05;0.05;;;;;;;;;;1726114;28;20200;-68
2021/12/26 03:45:26;;;;;;;0.00;0.00;;;;;;;;;;1725162;28;20251;-70
2021/12/26 03:46:17;;;;;;;0.10;0.10;;;;;;;;;;1727029;28;20211;-69
2021/12/26 03:47:10;;;;;;;0.10;0.10;;;;;;;;;;1726355;28;20200;-69
2021/12/26 03:48:01;;;;;;;0.20;0.20;;;;;;;;;;1726718;28;20204;-69
2021/12/26 03:48:53;;;;;;;0.00;0.00;;;;;;;;;;1726031;28;20232;-69
2021/12/26 03:49:44;;;;;;;0.00;0.00;;;;;;;;;;1726285;28;20203;-69
2021/12/26 03:50:40;;;;;;;0.10;0.10;;;;;;;;;;1725420;28;20705;-69
2021/12/26 03:51:31;;;;;;;0.00;0.00;;;;;;;;;;1726562;28;20684;-69
2021/12/26 03:52:24;;;;;;;0.10;0.10;;;;;;;;;;1726646;28;20668;-69
2021/12/26 03:53:17;;;;;;;0.05;0.05;;;;;;;;;;1726819;28;20663;-69
2021/12/26 03:54:09;;;;;;;0.03;0.03;;;;;;;;;;1726311;28;20227;-69
2021/12/26 03:55:01;;;;;;;0.00;0.00;;;;;;;;;;1726791;28;20200;-69
2021/12/26 03:55:52;;;;;;;0.00;0.00;;;;;;;;;;1725877;28;20227;-68
2021/12/26 03:56:44;;;;;;;0.10;0.10;;;;;;;;;;1726610;28;20204;-68
2021/12/26 03:57:35;;;;;;;0.20;0.20;;;;;;;;;;1726257;28;20239;-68
2021/12/26 03:58:27;;;;;;;0.00;0.00;;;;;;;;;;1726567;28;20204;-69
2021/12/26 03:59:19;;;;;;;0.10;0.10;;;;;;;;;;1726303;28;20201;-68
2021/12/26 04:00:13;;;;;;;0.10;0.10;;;;;;;;;;1726890;28;20196;-68
2021/12/26 04:01:06;;;;;;;0.10;0.10;;;;;;;;;;1725552;28;20294;-69
2021/12/26 04:01:57;;;;;;;0.10;0.10;;;;;;;;;;1725551;28;20234;-69
2021/12/26 04:02:49;;;;;;;0.00;0.00;;;;;;;;;;1726154;28;20200;-69
2021/12/26 04:03:40;;;;;;;0.10;0.10;;;;;;;;;;1726325;28;20205;-70
2021/12/26 04:04:32;;;;;;;0.10;0.10;;;;;;;;;;1726580;28;20206;-69
2021/12/26 04:05:24;;;;;;;0.00;0.00;;;;;;;;;;1725688;28;20346;-70
2021/12/26 04:06:16;;;;;;;0.00;0.00;;;;;;;;;;1726381;28;20701;-69
2021/12/26 04:07:07;;;;;;;0.00;0.00;;;;;;;;;;1726326;28;20212;-69
2021/12/26 04:08:00;;;;;;;0.00;0.00;;;;;;;;;;1726190;28;20224;-70
2021/12/26 04:08:52;;;;;;;0.00;0.00;;;;;;;;;;1725368;28;20650;-70
2021/12/26 04:09:44;;;;;;;0.10;0.10;;;;;;;;;;1726550;28;20208;-69
2021/12/26 04:10:36;;;;;;;0.05;0.05;;;;;;;;;;1724898;28;20208;-69
2021/12/26 04:11:29;;;;;;;0.08;0.08;;;;;;;;;;1726312;28;20211;-69
2021/12/26 04:12:20;;;;;;;0.10;0.10;;;;;;;;;;1725996;28;20247;-69
2021/12/26 04:13:12;;;;;;;0.00;0.00;;;;;;;;;;1726663;28;20200;-69
2021/12/26 04:14:03;;;;;;;0.08;0.08;;;;;;;;;;1725751;28;20638;-69
2021/12/26 04:14:55;;;;;;;0.20;0.20;;;;;;;;;;1726167;28;20204;-69
2021/12/26 04:15:47;;;;;;;0.00;0.00;;;;;;;;;;1725849;28;20259;-69
2021/12/26 04:16:39;;;;;;;0.10;0.10;;;;;;;;;;1726324;28;20204;-69
2021/12/26 04:17:30;;;;;;;0.00;0.00;;;;;;;;;;1725879;28;20204;-69
2021/12/26 04:18:22;;;;;;;0.00;0.00;;;;;;;;;;1726577;28;21736;-69
2021/12/26 04:19:14;;;;;;;0.10;0.10;;;;;;;;;;1725660;28;20634;-70
2021/12/26 04:20:08;;;;;;;0.08;0.08;;;;;;;;;;1725845;28;20208;-69
2021/12/26 04:21:00;;;;;;;0.10;0.10;;;;;;;;;;1725188;28;20239;-69
2021/12/26 04:21:52;;;;;;;0.10;0.10;;;;;;;;;;1726430;28;20211;-69
2021/12/26 04:22:43;;;;;;;0.20;0.20;;;;;;;;;;1726192;28;20219;-69
2021/12/26 04:23:36;;;;;;;0.00;0.00;;;;;;;;;;1726403;28;20215;-69
2021/12/26 04:24:30;;;;;;;0.00;0.00;;;;;;;;;;1726618;28;20204;-69
2021/12/26 04:25:22;;;;;;;0.00;0.00;;;;;;;;;;1725861;28;20200;-70
2021/12/26 04:26:14;;;;;;;0.10;0.10;;;;;;;;;;1715291;28;20220;-69
2021/12/26 04:27:05;;;;;;;0.10;0.10;;;;;;;;;;1718913;28;20204;-69
2021/12/26 04:27:58;;;;;;;0.15;0.15;;;;;;;;;;1719687;28;20842;-69
2021/12/26 04:28:49;;;;;;;0.10;0.10;;;;;;;;;;1718740;28;20634;-69
2021/12/26 04:29:41;;;;;;;0.10;0.10;;;;;;;;;;1719878;28;20647;-69
2021/12/26 04:30:33;;;;;;;0.00;0.00;;;;;;;;;;1721036;28;20226;-68
2021/12/26 04:31:25;;;;;;;0.10;0.10;;;;;;;;;;1726415;28;20208;-68
2021/12/26 04:32:16;;;;;;;0.20;0.20;;;;;;;;;;1725045;28;20219;-68
2021/12/26 04:33:08;;;;;;;0.10;0.10;;;;;;;;;;1726291;28;20200;-69
2021/12/26 04:34:00;;;;;;;0.10;0.10;;;;;;;;;;1725869;28;20266;-69
2021/12/26 04:34:52;;;;;;;0.00;0.00;;;;;;;;;;1726294;28;20615;-68
2021/12/26 04:35:43;;;;;;;0.00;0.00;;;;;;;;;;1725377;28;20255;-69
2021/12/26 04:36:35;;;;;;;0.00;0.00;;;;;;;;;;1726525;28;20718;-69
2021/12/26 04:37:26;;;;;;;0.20;0.20;;;;;;;;;;1724155;28;20219;-69
2021/12/26 04:38:19;;;;;;;0.10;0.10;;;;;;;;;;1725372;28;20201;-69
2021/12/26 04:39:10;;;;;;;0.05;0.05;;;;;;;;;;1724095;28;20204;-69
2021/12/26 04:40:05;;;;;;;0.00;0.00;;;;;;;;;;1726203;28;20200;-70
2021/12/26 04:40:56;;;;;;;0.10;0.10;;;;;;;;;;1725568;28;20558;-70
2021/12/26 04:41:48;;;;;;;0.00;0.00;;;;;;;;;;1726008;28;20211;-70
2021/12/26 04:42:43;;;;;;;0.10;0.10;;;;;;;;;;1726256;28;20208;-69
2021/12/26 04:43:36;;;;;;;0.10;0.10;;;;;;;;;;1725817;28;20243;-69
2021/12/26 04:44:28;;;;;;;0.00;0.00;;;;;;;;;;1725489;28;20204;-70
2021/12/26 04:45:20;;;;;;;0.00;0.00;;;;;;;;;;1725908;28;20716;-70
2021/12/26 04:46:12;;;;;;;0.10;0.10;;;;;;;;;;1725649;28;20231;-69
2021/12/26 04:47:04;;;;;;;0.03;0.03;;;;;;;;;;1725550;28;20196;-70
2021/12/26 04:47:55;;;;;;;0.00;0.00;;;;;;;;;;1726416;28;20204;-69
2021/12/26 04:48:47;;;;;;;0.10;0.10;;;;;;;;;;1725501;28;20270;-70
2021/12/26 04:49:38;;;;;;;0.10;0.10;;;;;;;;;;1726321;28;20204;-69
2021/12/26 04:50:31;;;;;;;0.00;0.00;;;;;;;;;;1724541;28;20243;-69
2021/12/26 04:51:22;;;;;;;0.20;0.20;;;;;;;;;;1726625;28;20210;-69
2021/12/26 04:52:14;;;;;;;0.10;0.10;;;;;;;;;;1725772;28;20259;-69
2021/12/26 04:53:07;;;;;;;0.00;0.00;;;;;;;;;;1726360;28;20211;-69
2021/12/26 04:53:58;;;;;;;0.10;0.10;;;;;;;;;;1725740;28;20212;-69
2021/12/26 04:54:50;;;;;;;0.10;0.10;;;;;;;;;;1726164;28;20299;-69
2021/12/26 04:55:42;;;;;;;0.00;0.00;;;;;;;;;;1725358;28;20239;-69
2021/12/26 04:56:35;;;;;;;0.10;0.10;;;;;;;;;;1725694;28;20205;-69
2021/12/26 04:57:26;;;;;;;0.00;0.00;;;;;;;;;;1725953;28;20218;-69
2021/12/26 04:58:18;;;;;;;0.00;0.00;;;;;;;;;;1726180;28;20551;-68
2021/12/26 04:59:10;;;;;;;0.00;0.00;;;;;;;;;;1725668;28;20200;-68
2021/12/26 05:00:02;;;;;;;0.00;0.00;;;;;;;;;;1726539;28;20222;-68
2021/12/26 05:00:53;;;;;;;0.00;0.00;;;;;;;;;;1723633;28;20239;-69
2021/12/26 05:01:45;;;;;;;0.10;0.10;;;;;;;;;;1726260;28;20441;-69
2021/12/26 05:02:38;;;;;;;0.10;0.10;;;;;;;;;;1724926;28;20226;-70
2021/12/26 05:03:31;;;;;;;0.10;0.10;;;;;;;;;;1726043;28;20197;-69
2021/12/26 05:04:22;;;;;;;0.15;0.15;;;;;;;;;;1725884;28;20196;-69
2021/12/26 05:05:14;;;;;;;0.10;0.10;;;;;;;;;;1726469;28;20204;-69
2021/12/26 05:06:06;;;;;;;0.00;0.00;;;;;;;;;;1725022;28;20578;-68
2021/12/26 05:07:01;;;;;;;0.00;0.00;;;;;;;;;;1725591;28;20633;-69
2021/12/26 05:07:53;;;;;;;0.00;0.00;;;;;;;;;;1725986;28;20200;-69
2021/12/26 05:08:45;;;;;;;0.10;0.10;;;;;;;;;;1725134;28;20199;-69
2021/12/26 05:09:36;;;;;;;0.00;0.00;;;;;;;;;;1726316;28;20641;-69
2021/12/26 05:10:29;;;;;;;0.00;0.00;;;;;;;;;;1725091;28;20243;-68
2021/12/26 05:11:22;;;;;;;0.00;0.00;;;;;;;;;;1725973;28;20541;-69
2021/12/26 05:12:14;;;;;;;0.00;0.00;;;;;;;;;;1725379;28;20295;-68
2021/12/26 05:13:05;;;;;;;0.10;0.10;;;;;;;;;;1726029;28;20219;-69
2021/12/26 05:13:58;;;;;;;0.10;0.10;;;;;;;;;;1725171;28;20568;-68
2021/12/26 05:14:49;;;;;;;0.13;0.13;;;;;;;;;;1725569;28;20219;-69
2021/12/26 05:15:43;;;;;;;0.15;0.15;;;;;;;;;;1725371;28;20343;-70